sensor_id;sensor_type;location;lat;lon;timestamp;P1;durP1;ratioP1;P2;durP2;ratioP2
63492;SDS011;49638;47.526;10.028;2023-04-09T00:02:30;34.42;;;17.58;;
63492;SDS011;49638;47.526;10.028;2023-04-09T00:05:30;36.28;;;18.80;;
63492;SDS011;49638;47.526;10.028;2023-04-09T00:08:30;35.30;;;17.92;;
63492;SDS011;49638;47.526;10.028;2023-04-09T00:11:31;36.35;;;17.58;;
63492;SDS011;49638;47.526;10.028;2023-04-09T00:14:31;34.28;;;18.02;;
63492;SDS011;49638;47.526;10.028;2023-04-09T00:17:31;34.88;;;18.15;;
63492;SDS011;49638;47.526;10.028;2023-04-09T00:20:32;35.90;;;17.95;;
63492;SDS011;49638;47.526;10.028;2023-04-09T00:23:33;30.58;;;16.30;;
63492;SDS011;49638;47.526;10.028;2023-04-09T00:26:33;31.17;;;16.10;;
63492;SDS011;49638;47.526;10.028;2023-04-09T00:29:33;31.02;;;16.58;;
63492;SDS011;49638;47.526;10.028;2023-04-09T00:32:33;29.42;;;15.93;;
63492;SDS011;49638;47.526;10.028;2023-04-09T00:35:34;28.83;;;15.40;;
63492;SDS011;49638;47.526;10.028;2023-04-09T00:38:34;28.80;;;15.15;;
63492;SDS011;49638;47.526;10.028;2023-04-09T00:41:35;27.23;;;14.70;;
63492;SDS011;49638;47.526;10.028;2023-04-09T00:44:35;25.75;;;14.95;;
63492;SDS011;49638;47.526;10.028;2023-04-09T00:47:35;28.30;;;14.50;;
63492;SDS011;49638;47.526;10.028;2023-04-09T00:50:35;27.40;;;14.98;;
63492;SDS011;49638;47.526;10.028;2023-04-09T00:53:36;29.27;;;15.23;;
63492;SDS011;49638;47.526;10.028;2023-04-09T00:56:36;29.70;;;15.77;;
63492;SDS011;49638;47.526;10.028;2023-04-09T00:59:37;31.48;;;16.17;;
63492;SDS011;49638;47.526;10.028;2023-04-09T01:02:38;33.40;;;16.92;;
63492;SDS011;49638;47.526;10.028;2023-04-09T01:09:07;35.13;;;17.67;;
63492;SDS011;49638;47.526;10.028;2023-04-09T01:15:46;38.72;;;17.45;;
63492;SDS011;49638;47.526;10.028;2023-04-09T01:18:58;37.30;;;17.55;;
63492;SDS011;49638;47.526;10.028;2023-04-09T01:22:01;29.90;;;15.50;;
63492;SDS011;49638;47.526;10.028;2023-04-09T01:31:19;28.10;;;13.60;;
63492;SDS011;49638;47.526;10.028;2023-04-09T01:34:24;30.98;;;14.63;;
63492;SDS011;49638;47.526;10.028;2023-04-09T01:37:26;30.42;;;15.00;;
63492;SDS011;49638;47.526;10.028;2023-04-09T01:40:26;59.42;;;17.08;;
63492;SDS011;49638;47.526;10.028;2023-04-09T01:43:27;44.10;;;16.90;;
63492;SDS011;49638;47.526;10.028;2023-04-09T01:46:28;30.77;;;14.50;;
63492;SDS011;49638;47.526;10.028;2023-04-09T01:49:28;28.02;;;13.60;;
63492;SDS011;49638;47.526;10.028;2023-04-09T01:52:29;29.83;;;14.68;;
63492;SDS011;49638;47.526;10.028;2023-04-09T01:55:30;28.70;;;13.52;;
63492;SDS011;49638;47.526;10.028;2023-04-09T01:58:30;29.42;;;14.00;;
63492;SDS011;49638;47.526;10.028;2023-04-09T02:02:35;29.63;;;13.95;;
63492;SDS011;49638;47.526;10.028;2023-04-09T02:05:09;26.85;;;13.43;;
63492;SDS011;49638;47.526;10.028;2023-04-09T02:08:14;30.85;;;14.35;;
63492;SDS011;49638;47.526;10.028;2023-04-09T02:11:19;25.42;;;13.45;;
63492;SDS011;49638;47.526;10.028;2023-04-09T02:14:22;25.20;;;12.37;;
63492;SDS011;49638;47.526;10.028;2023-04-09T02:17:25;26.50;;;12.97;;
63492;SDS011;49638;47.526;10.028;2023-04-09T02:20:26;24.13;;;11.95;;
63492;SDS011;49638;47.526;10.028;2023-04-09T02:23:26;24.55;;;12.10;;
63492;SDS011;49638;47.526;10.028;2023-04-09T02:26:26;24.02;;;11.82;;
63492;SDS011;49638;47.526;10.028;2023-04-09T02:29:27;23.80;;;12.68;;
63492;SDS011;49638;47.526;10.028;2023-04-09T02:32:27;24.00;;;11.68;;
63492;SDS011;49638;47.526;10.028;2023-04-09T02:35:27;26.95;;;12.75;;
63492;SDS011;49638;47.526;10.028;2023-04-09T02:38:28;24.55;;;12.35;;
63492;SDS011;49638;47.526;10.028;2023-04-09T02:41:28;24.48;;;12.18;;
63492;SDS011;49638;47.526;10.028;2023-04-09T02:44:28;25.83;;;12.50;;
63492;SDS011;49638;47.526;10.028;2023-04-09T02:47:28;26.83;;;12.32;;
63492;SDS011;49638;47.526;10.028;2023-04-09T02:50:29;27.10;;;13.32;;
63492;SDS011;49638;47.526;10.028;2023-04-09T02:53:29;27.48;;;12.68;;
63492;SDS011;49638;47.526;10.028;2023-04-09T02:56:30;28.20;;;13.00;;
63492;SDS011;49638;47.526;10.028;2023-04-09T02:59:30;27.60;;;12.00;;
63492;SDS011;49638;47.526;10.028;2023-04-09T03:02:31;26.60;;;12.13;;
63492;SDS011;49638;47.526;10.028;2023-04-09T03:05:32;23.30;;;11.65;;
63492;SDS011;49638;47.526;10.028;2023-04-09T03:08:32;27.92;;;12.20;;
63492;SDS011;49638;47.526;10.028;2023-04-09T03:11:32;22.15;;;11.13;;
63492;SDS011;49638;47.526;10.028;2023-04-09T03:14:32;23.55;;;11.40;;
63492;SDS011;49638;47.526;10.028;2023-04-09T03:17:33;23.45;;;10.38;;
63492;SDS011;49638;47.526;10.028;2023-04-09T03:20:36;22.90;;;11.10;;
63492;SDS011;49638;47.526;10.028;2023-04-09T03:23:36;21.77;;;10.68;;
63492;SDS011;49638;47.526;10.028;2023-04-09T03:26:37;19.50;;;9.40;;
63492;SDS011;49638;47.526;10.028;2023-04-09T03:29:37;19.27;;;9.65;;
63492;SDS011;49638;47.526;10.028;2023-04-09T03:32:37;19.70;;;9.55;;
63492;SDS011;49638;47.526;10.028;2023-04-09T03:35:37;18.75;;;9.38;;
63492;SDS011;49638;47.526;10.028;2023-04-09T03:38:38;21.10;;;9.80;;
63492;SDS011;49638;47.526;10.028;2023-04-09T03:41:38;19.42;;;10.02;;
63492;SDS011;49638;47.526;10.028;2023-04-09T03:44:38;20.08;;;9.82;;
63492;SDS011;49638;47.526;10.028;2023-04-09T03:47:38;22.35;;;10.55;;
63492;SDS011;49638;47.526;10.028;2023-04-09T03:50:39;19.45;;;9.68;;
63492;SDS011;49638;47.526;10.028;2023-04-09T03:53:40;18.52;;;9.02;;
63492;SDS011;49638;47.526;10.028;2023-04-09T03:56:41;18.40;;;9.32;;
63492;SDS011;49638;47.526;10.028;2023-04-09T03:59:41;18.30;;;9.05;;
63492;SDS011;49638;47.526;10.028;2023-04-09T04:02:41;19.63;;;9.18;;
63492;SDS011;49638;47.526;10.028;2023-04-09T04:05:42;19.85;;;8.88;;
63492;SDS011;49638;47.526;10.028;2023-04-09T04:08:42;18.58;;;8.75;;
63492;SDS011;49638;47.526;10.028;2023-04-09T04:11:43;16.50;;;8.68;;
63492;SDS011;49638;47.526;10.028;2023-04-09T04:14:43;17.23;;;8.32;;
63492;SDS011;49638;47.526;10.028;2023-04-09T04:17:45;16.58;;;7.95;;
63492;SDS011;49638;47.526;10.028;2023-04-09T04:20:45;18.30;;;8.88;;
63492;SDS011;49638;47.526;10.028;2023-04-09T04:23:45;16.25;;;8.30;;
63492;SDS011;49638;47.526;10.028;2023-04-09T04:26:46;17.10;;;8.13;;
63492;SDS011;49638;47.526;10.028;2023-04-09T04:29:46;17.17;;;8.27;;
63492;SDS011;49638;47.526;10.028;2023-04-09T04:32:46;19.63;;;8.82;;
63492;SDS011;49638;47.526;10.028;2023-04-09T04:35:47;19.48;;;9.23;;
63492;SDS011;49638;47.526;10.028;2023-04-09T04:38:47;19.15;;;9.02;;
63492;SDS011;49638;47.526;10.028;2023-04-09T04:41:48;16.75;;;8.07;;
63492;SDS011;49638;47.526;10.028;2023-04-09T04:44:48;18.60;;;9.00;;
63492;SDS011;49638;47.526;10.028;2023-04-09T04:47:48;17.50;;;7.68;;
63492;SDS011;49638;47.526;10.028;2023-04-09T04:50:55;16.73;;;7.78;;
63492;SDS011;49638;47.526;10.028;2023-04-09T04:53:56;15.00;;;7.75;;
63492;SDS011;49638;47.526;10.028;2023-04-09T04:56:57;14.70;;;7.28;;
63492;SDS011;49638;47.526;10.028;2023-04-09T04:59:57;16.77;;;8.20;;
63492;SDS011;49638;47.526;10.028;2023-04-09T05:02:57;21.80;;;9.00;;
63492;SDS011;49638;47.526;10.028;2023-04-09T05:05:57;22.00;;;10.10;;
63492;SDS011;49638;47.526;10.028;2023-04-09T05:08:58;22.83;;;10.05;;
63492;SDS011;49638;47.526;10.028;2023-04-09T05:11:58;22.02;;;9.98;;
63492;SDS011;49638;47.526;10.028;2023-04-09T05:14:58;20.63;;;9.23;;
63492;SDS011;49638;47.526;10.028;2023-04-09T05:17:59;17.80;;;7.85;;
63492;SDS011;49638;47.526;10.028;2023-04-09T05:20:59;16.05;;;7.22;;
63492;SDS011;49638;47.526;10.028;2023-04-09T05:23:59;14.38;;;6.93;;
63492;SDS011;49638;47.526;10.028;2023-04-09T05:26:59;15.25;;;7.40;;
63492;SDS011;49638;47.526;10.028;2023-04-09T05:30:00;13.32;;;6.88;;
63492;SDS011;49638;47.526;10.028;2023-04-09T05:33:00;16.38;;;9.30;;
63492;SDS011;49638;47.526;10.028;2023-04-09T05:36:00;17.02;;;9.32;;
63492;SDS011;49638;47.526;10.028;2023-04-09T05:39:01;15.45;;;8.80;;
63492;SDS011;49638;47.526;10.028;2023-04-09T05:42:01;13.35;;;7.32;;
63492;SDS011;49638;47.526;10.028;2023-04-09T05:45:01;12.70;;;7.43;;
63492;SDS011;49638;47.526;10.028;2023-04-09T05:48:02;12.90;;;6.65;;
63492;SDS011;49638;47.526;10.028;2023-04-09T05:51:02;12.10;;;6.05;;
63492;SDS011;49638;47.526;10.028;2023-04-09T05:54:02;11.30;;;5.82;;
63492;SDS011;49638;47.526;10.028;2023-04-09T05:57:03;12.63;;;6.20;;
63492;SDS011;49638;47.526;10.028;2023-04-09T06:00:03;13.23;;;5.97;;
63492;SDS011;49638;47.526;10.028;2023-04-09T06:03:04;12.93;;;7.10;;
63492;SDS011;49638;47.526;10.028;2023-04-09T06:06:05;14.50;;;6.82;;
63492;SDS011;49638;47.526;10.028;2023-04-09T06:09:05;12.65;;;6.40;;
63492;SDS011;49638;47.526;10.028;2023-04-09T06:12:05;9.80;;;5.60;;
63492;SDS011;49638;47.526;10.028;2023-04-09T06:15:06;9.63;;;5.10;;
63492;SDS011;49638;47.526;10.028;2023-04-09T06:18:06;10.00;;;5.35;;
63492;SDS011;49638;47.526;10.028;2023-04-09T06:21:07;8.95;;;5.07;;
63492;SDS011;49638;47.526;10.028;2023-04-09T06:24:07;9.80;;;5.47;;
63492;SDS011;49638;47.526;10.028;2023-04-09T06:27:08;8.82;;;5.35;;
63492;SDS011;49638;47.526;10.028;2023-04-09T06:30:08;11.68;;;5.82;;
63492;SDS011;49638;47.526;10.028;2023-04-09T06:33:09;13.82;;;7.25;;
63492;SDS011;49638;47.526;10.028;2023-04-09T06:36:09;11.70;;;7.22;;
63492;SDS011;49638;47.526;10.028;2023-04-09T06:39:10;12.98;;;6.93;;
63492;SDS011;49638;47.526;10.028;2023-04-09T06:42:10;13.27;;;7.28;;
63492;SDS011;49638;47.526;10.028;2023-04-09T06:45:10;12.80;;;7.25;;
63492;SDS011;49638;47.526;10.028;2023-04-09T06:48:11;15.07;;;7.90;;
63492;SDS011;49638;47.526;10.028;2023-04-09T06:51:11;15.30;;;8.07;;
63492;SDS011;49638;47.526;10.028;2023-04-09T06:54:12;15.10;;;8.27;;
63492;SDS011;49638;47.526;10.028;2023-04-09T06:57:12;14.25;;;7.57;;
63492;SDS011;49638;47.526;10.028;2023-04-09T07:00:12;13.30;;;7.57;;
63492;SDS011;49638;47.526;10.028;2023-04-09T07:03:13;14.85;;;8.45;;
63492;SDS011;49638;47.526;10.028;2023-04-09T07:06:13;14.23;;;8.50;;
63492;SDS011;49638;47.526;10.028;2023-04-09T07:09:13;15.98;;;8.15;;
63492;SDS011;49638;47.526;10.028;2023-04-09T07:12:14;14.77;;;7.95;;
63492;SDS011;49638;47.526;10.028;2023-04-09T07:15:25;15.07;;;8.35;;
63492;SDS011;49638;47.526;10.028;2023-04-09T07:18:25;13.35;;;7.65;;
63492;SDS011;49638;47.526;10.028;2023-04-09T07:21:26;14.38;;;8.13;;
63492;SDS011;49638;47.526;10.028;2023-04-09T07:24:27;15.05;;;8.30;;
63492;SDS011;49638;47.526;10.028;2023-04-09T07:27:27;13.65;;;7.82;;
63492;SDS011;49638;47.526;10.028;2023-04-09T07:30:28;14.95;;;7.95;;
63492;SDS011;49638;47.526;10.028;2023-04-09T07:33:28;12.57;;;7.97;;
63492;SDS011;49638;47.526;10.028;2023-04-09T07:36:29;12.07;;;7.22;;
63492;SDS011;49638;47.526;10.028;2023-04-09T07:39:30;12.80;;;7.78;;
63492;SDS011;49638;47.526;10.028;2023-04-09T07:42:31;10.05;;;6.03;;
63492;SDS011;49638;47.526;10.028;2023-04-09T07:45:31;11.02;;;6.13;;
63492;SDS011;49638;47.526;10.028;2023-04-09T07:48:31;9.65;;;6.00;;
63492;SDS011;49638;47.526;10.028;2023-04-09T07:51:32;10.25;;;6.40;;
63492;SDS011;49638;47.526;10.028;2023-04-09T07:54:33;11.38;;;7.10;;
63492;SDS011;49638;47.526;10.028;2023-04-09T07:57:34;10.63;;;6.78;;
63492;SDS011;49638;47.526;10.028;2023-04-09T08:00:35;12.82;;;6.85;;
63492;SDS011;49638;47.526;10.028;2023-04-09T08:03:36;12.07;;;6.82;;
63492;SDS011;49638;47.526;10.028;2023-04-09T08:06:36;10.73;;;6.60;;
63492;SDS011;49638;47.526;10.028;2023-04-09T08:09:36;11.02;;;6.90;;
63492;SDS011;49638;47.526;10.028;2023-04-09T08:12:36;11.23;;;6.38;;
63492;SDS011;49638;47.526;10.028;2023-04-09T08:15:37;11.73;;;6.72;;
63492;SDS011;49638;47.526;10.028;2023-04-09T08:18:37;11.75;;;6.55;;
63492;SDS011;49638;47.526;10.028;2023-04-09T08:21:38;12.63;;;6.78;;
63492;SDS011;49638;47.526;10.028;2023-04-09T08:24:42;10.18;;;6.80;;
63492;SDS011;49638;47.526;10.028;2023-04-09T08:27:42;14.00;;;7.55;;
63492;SDS011;49638;47.526;10.028;2023-04-09T08:30:43;10.82;;;6.57;;
63492;SDS011;49638;47.526;10.028;2023-04-09T08:33:43;12.18;;;7.07;;
63492;SDS011;49638;47.526;10.028;2023-04-09T08:36:44;11.48;;;7.10;;
63492;SDS011;49638;47.526;10.028;2023-04-09T08:39:45;10.95;;;7.00;;
63492;SDS011;49638;47.526;10.028;2023-04-09T08:42:45;9.63;;;6.07;;
63492;SDS011;49638;47.526;10.028;2023-04-09T08:45:51;10.45;;;6.63;;
63492;SDS011;49638;47.526;10.028;2023-04-09T08:48:56;10.80;;;6.45;;
63492;SDS011;49638;47.526;10.028;2023-04-09T08:51:56;10.20;;;6.40;;
63492;SDS011;49638;47.526;10.028;2023-04-09T08:54:57;9.88;;;6.20;;
63492;SDS011;49638;47.526;10.028;2023-04-09T08:57:57;10.60;;;6.60;;
63492;SDS011;49638;47.526;10.028;2023-04-09T09:00:57;9.70;;;6.28;;
63492;SDS011;49638;47.526;10.028;2023-04-09T09:03:58;9.38;;;6.13;;
63492;SDS011;49638;47.526;10.028;2023-04-09T09:07:05;9.68;;;6.00;;
63492;SDS011;49638;47.526;10.028;2023-04-09T09:10:06;9.35;;;5.82;;
63492;SDS011;49638;47.526;10.028;2023-04-09T09:16:19;11.07;;;6.97;;
63492;SDS011;49638;47.526;10.028;2023-04-09T09:22:23;10.85;;;7.07;;
63492;SDS011;49638;47.526;10.028;2023-04-09T09:25:24;11.13;;;7.03;;
63492;SDS011;49638;47.526;10.028;2023-04-09T09:28:25;11.45;;;7.10;;
63492;SDS011;49638;47.526;10.028;2023-04-09T09:31:44;9.18;;;6.32;;
63492;SDS011;49638;47.526;10.028;2023-04-09T09:34:55;10.27;;;6.85;;
63492;SDS011;49638;47.526;10.028;2023-04-09T09:38:03;10.60;;;7.05;;
63492;SDS011;49638;47.526;10.028;2023-04-09T09:41:14;11.10;;;6.78;;
63492;SDS011;49638;47.526;10.028;2023-04-09T09:44:29;12.40;;;6.60;;
63492;SDS011;49638;47.526;10.028;2023-04-09T09:47:31;12.35;;;7.80;;
63492;SDS011;49638;47.526;10.028;2023-04-09T09:50:33;13.73;;;7.70;;
63492;SDS011;49638;47.526;10.028;2023-04-09T09:53:37;11.52;;;7.55;;
63492;SDS011;49638;47.526;10.028;2023-04-09T09:56:39;11.80;;;7.30;;
63492;SDS011;49638;47.526;10.028;2023-04-09T09:59:44;12.30;;;7.57;;
63492;SDS011;49638;47.526;10.028;2023-04-09T10:02:54;12.88;;;7.25;;
63492;SDS011;49638;47.526;10.028;2023-04-09T10:05:57;11.27;;;7.43;;
63492;SDS011;49638;47.526;10.028;2023-04-09T10:09:02;12.43;;;7.47;;
63492;SDS011;49638;47.526;10.028;2023-04-09T10:12:04;13.00;;;7.65;;
63492;SDS011;49638;47.526;10.028;2023-04-09T10:15:06;13.10;;;7.60;;
63492;SDS011;49638;47.526;10.028;2023-04-09T10:18:08;12.88;;;7.75;;
63492;SDS011;49638;47.526;10.028;2023-04-09T10:21:11;13.43;;;8.07;;
63492;SDS011;49638;47.526;10.028;2023-04-09T10:24:16;13.73;;;8.32;;
63492;SDS011;49638;47.526;10.028;2023-04-09T10:27:16;12.43;;;7.35;;
63492;SDS011;49638;47.526;10.028;2023-04-09T10:30:29;11.60;;;7.20;;
63492;SDS011;49638;47.526;10.028;2023-04-09T10:33:35;12.77;;;7.72;;
63492;SDS011;49638;47.526;10.028;2023-04-09T10:36:36;11.90;;;7.68;;
63492;SDS011;49638;47.526;10.028;2023-04-09T10:39:40;11.48;;;6.72;;
63492;SDS011;49638;47.526;10.028;2023-04-09T10:42:44;12.13;;;7.03;;
63492;SDS011;49638;47.526;10.028;2023-04-09T10:45:46;9.10;;;5.97;;
63492;SDS011;49638;47.526;10.028;2023-04-09T10:49:11;11.02;;;6.50;;
63492;SDS011;49638;47.526;10.028;2023-04-09T10:52:12;11.10;;;7.15;;
63492;SDS011;49638;47.526;10.028;2023-04-09T10:55:56;11.43;;;7.57;;
63492;SDS011;49638;47.526;10.028;2023-04-09T11:01:39;11.73;;;7.25;;
63492;SDS011;49638;47.526;10.028;2023-04-09T11:04:53;9.20;;;6.22;;
63492;SDS011;49638;47.526;10.028;2023-04-09T11:14:09;12.00;;;6.90;;
63492;SDS011;49638;47.526;10.028;2023-04-09T11:17:09;12.85;;;7.18;;
63492;SDS011;49638;47.526;10.028;2023-04-09T11:20:09;12.43;;;7.18;;
63492;SDS011;49638;47.526;10.028;2023-04-09T11:23:11;12.20;;;6.85;;
63492;SDS011;49638;47.526;10.028;2023-04-09T11:26:12;12.93;;;7.53;;
63492;SDS011;49638;47.526;10.028;2023-04-09T11:29:12;12.38;;;7.43;;
63492;SDS011;49638;47.526;10.028;2023-04-09T11:32:13;13.00;;;7.25;;
63492;SDS011;49638;47.526;10.028;2023-04-09T11:35:17;11.60;;;7.25;;
63492;SDS011;49638;47.526;10.028;2023-04-09T11:38:18;12.07;;;7.40;;
63492;SDS011;49638;47.526;10.028;2023-04-09T11:41:31;11.43;;;6.82;;
63492;SDS011;49638;47.526;10.028;2023-04-09T11:44:35;9.85;;;6.30;;
63492;SDS011;49638;47.526;10.028;2023-04-09T11:47:35;11.73;;;6.63;;
63492;SDS011;49638;47.526;10.028;2023-04-09T11:50:36;8.02;;;5.13;;
63492;SDS011;49638;47.526;10.028;2023-04-09T11:53:36;8.52;;;5.65;;
63492;SDS011;49638;47.526;10.028;2023-04-09T11:56:37;7.78;;;5.20;;
63492;SDS011;49638;47.526;10.028;2023-04-09T11:59:37;8.50;;;4.97;;
63492;SDS011;49638;47.526;10.028;2023-04-09T12:02:40;8.75;;;5.30;;
63492;SDS011;49638;47.526;10.028;2023-04-09T12:05:44;8.65;;;5.57;;
63492;SDS011;49638;47.526;10.028;2023-04-09T12:08:46;7.88;;;5.32;;
63492;SDS011;49638;47.526;10.028;2023-04-09T12:11:47;7.72;;;5.20;;
63492;SDS011;49638;47.526;10.028;2023-04-09T12:14:47;6.55;;;4.85;;
63492;SDS011;49638;47.526;10.028;2023-04-09T12:17:52;7.57;;;4.63;;
63492;SDS011;49638;47.526;10.028;2023-04-09T12:20:54;6.97;;;4.57;;
63492;SDS011;49638;47.526;10.028;2023-04-09T12:23:54;6.22;;;4.20;;
63492;SDS011;49638;47.526;10.028;2023-04-09T12:26:54;7.20;;;4.55;;
63492;SDS011;49638;47.526;10.028;2023-04-09T12:29:56;6.82;;;4.28;;
63492;SDS011;49638;47.526;10.028;2023-04-09T12:32:56;6.00;;;4.28;;
63492;SDS011;49638;47.526;10.028;2023-04-09T12:35:57;6.45;;;4.10;;
63492;SDS011;49638;47.526;10.028;2023-04-09T12:38:57;5.78;;;3.90;;
63492;SDS011;49638;47.526;10.028;2023-04-09T12:41:57;6.10;;;3.85;;
63492;SDS011;49638;47.526;10.028;2023-04-09T12:44:58;5.13;;;3.67;;
63492;SDS011;49638;47.526;10.028;2023-04-09T12:47:58;5.25;;;3.63;;
63492;SDS011;49638;47.526;10.028;2023-04-09T12:50:58;4.90;;;3.40;;
63492;SDS011;49638;47.526;10.028;2023-04-09T12:53:58;12.95;;;7.30;;
63492;SDS011;49638;47.526;10.028;2023-04-09T12:56:59;4.95;;;3.22;;
63492;SDS011;49638;47.526;10.028;2023-04-09T12:59:59;5.07;;;3.47;;
63492;SDS011;49638;47.526;10.028;2023-04-09T13:02:59;5.25;;;3.67;;
63492;SDS011;49638;47.526;10.028;2023-04-09T13:06:00;4.68;;;3.55;;
63492;SDS011;49638;47.526;10.028;2023-04-09T13:09:00;4.10;;;2.90;;
63492;SDS011;49638;47.526;10.028;2023-04-09T13:12:01;4.00;;;2.90;;
63492;SDS011;49638;47.526;10.028;2023-04-09T13:15:01;4.20;;;2.85;;
63492;SDS011;49638;47.526;10.028;2023-04-09T13:18:02;4.05;;;3.13;;
63492;SDS011;49638;47.526;10.028;2023-04-09T13:21:03;3.72;;;2.55;;
63492;SDS011;49638;47.526;10.028;2023-04-09T13:24:03;3.38;;;2.38;;
63492;SDS011;49638;47.526;10.028;2023-04-09T13:27:04;3.42;;;2.53;;
63492;SDS011;49638;47.526;10.028;2023-04-09T13:30:06;4.28;;;2.75;;
63492;SDS011;49638;47.526;10.028;2023-04-09T13:33:06;4.15;;;2.58;;
63492;SDS011;49638;47.526;10.028;2023-04-09T13:36:07;3.28;;;2.40;;
63492;SDS011;49638;47.526;10.028;2023-04-09T13:39:07;3.65;;;2.63;;
63492;SDS011;49638;47.526;10.028;2023-04-09T13:42:07;3.70;;;2.72;;
63492;SDS011;49638;47.526;10.028;2023-04-09T13:45:08;4.28;;;2.67;;
63492;SDS011;49638;47.526;10.028;2023-04-09T13:48:08;3.03;;;2.38;;
63492;SDS011;49638;47.526;10.028;2023-04-09T13:51:08;4.20;;;2.85;;
63492;SDS011;49638;47.526;10.028;2023-04-09T13:54:09;3.42;;;2.45;;
63492;SDS011;49638;47.526;10.028;2023-04-09T13:57:10;3.20;;;2.45;;
63492;SDS011;49638;47.526;10.028;2023-04-09T14:00:10;3.15;;;2.58;;
63492;SDS011;49638;47.526;10.028;2023-04-09T14:03:11;4.10;;;2.50;;
63492;SDS011;49638;47.526;10.028;2023-04-09T14:06:13;3.75;;;2.70;;
63492;SDS011;49638;47.526;10.028;2023-04-09T14:09:13;2.75;;;2.25;;
63492;SDS011;49638;47.526;10.028;2023-04-09T14:12:13;5.75;;;2.40;;
63492;SDS011;49638;47.526;10.028;2023-04-09T14:15:14;4.05;;;2.88;;
63492;SDS011;49638;47.526;10.028;2023-04-09T14:18:14;2.72;;;2.40;;
63492;SDS011;49638;47.526;10.028;2023-04-09T14:21:15;4.18;;;2.40;;
63492;SDS011;49638;47.526;10.028;2023-04-09T14:24:15;2.58;;;2.38;;
63492;SDS011;49638;47.526;10.028;2023-04-09T14:27:15;3.13;;;2.17;;
63492;SDS011;49638;47.526;10.028;2023-04-09T14:30:16;2.92;;;2.20;;
63492;SDS011;49638;47.526;10.028;2023-04-09T14:33:16;2.92;;;2.40;;
63492;SDS011;49638;47.526;10.028;2023-04-09T14:36:16;2.67;;;2.30;;
63492;SDS011;49638;47.526;10.028;2023-04-09T14:39:17;2.20;;;2.00;;
63492;SDS011;49638;47.526;10.028;2023-04-09T14:42:18;3.33;;;2.40;;
63492;SDS011;49638;47.526;10.028;2023-04-09T14:45:18;3.33;;;2.33;;
63492;SDS011;49638;47.526;10.028;2023-04-09T14:48:18;3.33;;;2.42;;
63492;SDS011;49638;47.526;10.028;2023-04-09T14:51:19;2.78;;;2.10;;
63492;SDS011;49638;47.526;10.028;2023-04-09T14:54:19;2.88;;;2.20;;
63492;SDS011;49638;47.526;10.028;2023-04-09T14:57:20;2.85;;;2.10;;
63492;SDS011;49638;47.526;10.028;2023-04-09T15:00:20;2.25;;;1.88;;
63492;SDS011;49638;47.526;10.028;2023-04-09T15:03:21;2.15;;;1.95;;
63492;SDS011;49638;47.526;10.028;2023-04-09T15:06:21;3.38;;;2.28;;
63492;SDS011;49638;47.526;10.028;2023-04-09T15:09:22;2.25;;;1.83;;
63492;SDS011;49638;47.526;10.028;2023-04-09T15:12:22;2.50;;;1.98;;
63492;SDS011;49638;47.526;10.028;2023-04-09T15:15:22;3.22;;;1.98;;
63492;SDS011;49638;47.526;10.028;2023-04-09T15:18:22;2.35;;;1.98;;
63492;SDS011;49638;47.526;10.028;2023-04-09T15:21:23;3.47;;;2.10;;
63492;SDS011;49638;47.526;10.028;2023-04-09T15:24:23;2.65;;;1.88;;
63492;SDS011;49638;47.526;10.028;2023-04-09T15:27:23;2.58;;;2.10;;
63492;SDS011;49638;47.526;10.028;2023-04-09T15:30:24;2.30;;;1.90;;
63492;SDS011;49638;47.526;10.028;2023-04-09T15:33:25;2.95;;;1.80;;
63492;SDS011;49638;47.526;10.028;2023-04-09T15:36:26;2.10;;;1.90;;
63492;SDS011;49638;47.526;10.028;2023-04-09T15:39:28;2.58;;;2.00;;
63492;SDS011;49638;47.526;10.028;2023-04-09T15:42:31;2.58;;;2.17;;
63492;SDS011;49638;47.526;10.028;2023-04-09T15:45:31;2.85;;;2.20;;
63492;SDS011;49638;47.526;10.028;2023-04-09T15:48:31;2.30;;;1.70;;
63492;SDS011;49638;47.526;10.028;2023-04-09T15:51:32;2.25;;;1.80;;
63492;SDS011;49638;47.526;10.028;2023-04-09T15:54:32;2.85;;;2.30;;
63492;SDS011;49638;47.526;10.028;2023-04-09T15:57:32;2.45;;;1.90;;
63492;SDS011;49638;47.526;10.028;2023-04-09T16:00:33;2.55;;;2.08;;
63492;SDS011;49638;47.526;10.028;2023-04-09T16:03:33;2.88;;;2.10;;
63492;SDS011;49638;47.526;10.028;2023-04-09T16:06:38;3.03;;;2.10;;
63492;SDS011;49638;47.526;10.028;2023-04-09T16:09:39;2.20;;;2.00;;
63492;SDS011;49638;47.526;10.028;2023-04-09T16:12:39;3.75;;;2.40;;
63492;SDS011;49638;47.526;10.028;2023-04-09T16:15:39;3.45;;;2.28;;
63492;SDS011;49638;47.526;10.028;2023-04-09T16:18:39;2.72;;;2.38;;
63492;SDS011;49638;47.526;10.028;2023-04-09T16:21:40;3.42;;;2.47;;
63492;SDS011;49638;47.526;10.028;2023-04-09T16:24:44;4.10;;;2.70;;
63492;SDS011;49638;47.526;10.028;2023-04-09T16:27:44;3.70;;;2.80;;
63492;SDS011;49638;47.526;10.028;2023-04-09T16:30:44;3.90;;;2.83;;
63492;SDS011;49638;47.526;10.028;2023-04-09T16:33:45;3.45;;;2.67;;
63492;SDS011;49638;47.526;10.028;2023-04-09T16:36:45;4.78;;;2.60;;
63492;SDS011;49638;47.526;10.028;2023-04-09T16:39:46;3.55;;;2.53;;
63492;SDS011;49638;47.526;10.028;2023-04-09T16:42:46;4.38;;;2.53;;
63492;SDS011;49638;47.526;10.028;2023-04-09T16:45:46;4.88;;;3.20;;
63492;SDS011;49638;47.526;10.028;2023-04-09T16:48:46;5.70;;;3.55;;
63492;SDS011;49638;47.526;10.028;2023-04-09T16:51:47;5.60;;;3.70;;
63492;SDS011;49638;47.526;10.028;2023-04-09T16:54:47;4.35;;;3.25;;
63492;SDS011;49638;47.526;10.028;2023-04-09T16:57:47;5.05;;;3.60;;
63492;SDS011;49638;47.526;10.028;2023-04-09T17:00:47;4.70;;;3.17;;
63492;SDS011;49638;47.526;10.028;2023-04-09T17:03:48;5.50;;;3.90;;
63492;SDS011;49638;47.526;10.028;2023-04-09T17:06:48;6.28;;;4.28;;
63492;SDS011;49638;47.526;10.028;2023-04-09T17:09:48;5.90;;;4.00;;
63492;SDS011;49638;47.526;10.028;2023-04-09T17:12:49;7.82;;;4.55;;
63492;SDS011;49638;47.526;10.028;2023-04-09T17:15:50;6.88;;;4.53;;
63492;SDS011;49638;47.526;10.028;2023-04-09T17:18:51;6.50;;;4.43;;
63492;SDS011;49638;47.526;10.028;2023-04-09T17:21:51;7.20;;;4.80;;
63492;SDS011;49638;47.526;10.028;2023-04-09T17:24:51;7.40;;;4.32;;
63492;SDS011;49638;47.526;10.028;2023-04-09T17:27:51;7.28;;;4.53;;
63492;SDS011;49638;47.526;10.028;2023-04-09T17:30:52;8.73;;;5.20;;
63492;SDS011;49638;47.526;10.028;2023-04-09T17:33:52;7.38;;;4.63;;
63492;SDS011;49638;47.526;10.028;2023-04-09T17:36:52;8.07;;;4.40;;
63492;SDS011;49638;47.526;10.028;2023-04-09T17:39:56;7.20;;;4.75;;
63492;SDS011;49638;47.526;10.028;2023-04-09T17:42:56;6.85;;;4.57;;
63492;SDS011;49638;47.526;10.028;2023-04-09T17:45:56;6.60;;;4.28;;
63492;SDS011;49638;47.526;10.028;2023-04-09T17:48:57;7.22;;;4.78;;
63492;SDS011;49638;47.526;10.028;2023-04-09T17:51:57;9.55;;;5.55;;
63492;SDS011;49638;47.526;10.028;2023-04-09T17:54:58;7.95;;;5.05;;
63492;SDS011;49638;47.526;10.028;2023-04-09T17:57:58;9.45;;;5.18;;
63492;SDS011;49638;47.526;10.028;2023-04-09T18:00:59;10.07;;;5.80;;
63492;SDS011;49638;47.526;10.028;2023-04-09T18:03:59;8.45;;;4.82;;
63492;SDS011;49638;47.526;10.028;2023-04-09T18:07:00;9.35;;;5.38;;
63492;SDS011;49638;47.526;10.028;2023-04-09T18:10:00;16.08;;;8.18;;
63492;SDS011;49638;47.526;10.028;2023-04-09T18:13:01;33.05;;;16.65;;